sensor_id;sensor_type;location;lat;lon;timestamp;P1;durP1;ratioP1;P2;durP2;ratioP2
15102;SDS011;7652;53.584;9.998;2024-01-15T00:00:25;10.67;;;1.73;;
15102;SDS011;7652;53.584;9.998;2024-01-15T00:03:46;5.67;;;1.10;;
15102;SDS011;7652;53.584;9.998;2024-01-15T00:07:08;9.17;;;1.43;;
15102;SDS011;7652;53.584;9.998;2024-01-15T00:10:30;7.07;;;1.80;;
15102;SDS011;7652;53.584;9.998;2024-01-15T00:13:53;3.93;;;1.40;;
15102;SDS011;7652;53.584;9.998;2024-01-15T00:17:14;8.07;;;1.20;;
15102;SDS011;7652;53.584;9.998;2024-01-15T00:20:36;13.10;;;2.30;;
15102;SDS011;7652;53.584;9.998;2024-01-15T00:23:57;4.77;;;1.43;;
15102;SDS011;7652;53.584;9.998;2024-01-15T00:27:19;10.43;;;1.80;;
15102;SDS011;7652;53.584;9.998;2024-01-15T00:30:41;8.67;;;1.30;;
15102;SDS011;7652;53.584;9.998;2024-01-15T00:34:03;5.27;;;1.17;;
15102;SDS011;7652;53.584;9.998;2024-01-15T00:37:25;10.73;;;1.70;;
15102;SDS011;7652;53.584;9.998;2024-01-15T00:40:47;7.13;;;1.80;;
15102;SDS011;7652;53.584;9.998;2024-01-15T00:44:08;11.03;;;1.73;;
15102;SDS011;7652;53.584;9.998;2024-01-15T00:47:31;8.10;;;1.50;;
15102;SDS011;7652;53.584;9.998;2024-01-15T00:50:53;8.87;;;1.70;;
15102;SDS011;7652;53.584;9.998;2024-01-15T00:54:14;5.77;;;1.73;;
15102;SDS011;7652;53.584;9.998;2024-01-15T00:57:36;8.27;;;1.47;;
15102;SDS011;7652;53.584;9.998;2024-01-15T01:00:58;9.83;;;1.70;;
15102;SDS011;7652;53.584;9.998;2024-01-15T01:04:21;7.97;;;2.20;;
15102;SDS011;7652;53.584;9.998;2024-01-15T01:07:43;5.97;;;1.70;;
15102;SDS011;7652;53.584;9.998;2024-01-15T01:11:04;14.40;;;2.47;;
15102;SDS011;7652;53.584;9.998;2024-01-15T01:14:26;12.10;;;1.77;;
15102;SDS011;7652;53.584;9.998;2024-01-15T01:17:48;9.17;;;1.63;;
15102;SDS011;7652;53.584;9.998;2024-01-15T01:21:11;11.20;;;1.80;;
15102;SDS011;7652;53.584;9.998;2024-01-15T01:24:32;8.67;;;1.77;;
15102;SDS011;7652;53.584;9.998;2024-01-15T01:27:54;16.63;;;1.80;;
15102;SDS011;7652;53.584;9.998;2024-01-15T01:31:15;9.97;;;1.80;;
15102;SDS011;7652;53.584;9.998;2024-01-15T01:34:39;12.10;;;1.50;;
15102;SDS011;7652;53.584;9.998;2024-01-15T01:38:03;7.87;;;1.80;;
15102;SDS011;7652;53.584;9.998;2024-01-15T01:41:25;9.50;;;1.83;;
15102;SDS011;7652;53.584;9.998;2024-01-15T01:44:47;7.57;;;1.73;;
15102;SDS011;7652;53.584;9.998;2024-01-15T01:48:08;14.43;;;2.40;;
15102;SDS011;7652;53.584;9.998;2024-01-15T01:51:29;7.63;;;1.63;;
15102;SDS011;7652;53.584;9.998;2024-01-15T01:54:53;5.20;;;1.40;;
15102;SDS011;7652;53.584;9.998;2024-01-15T01:58:15;8.60;;;1.27;;
15102;SDS011;7652;53.584;9.998;2024-01-15T02:01:37;9.97;;;2.23;;
15102;SDS011;7652;53.584;9.998;2024-01-15T02:04:59;10.00;;;1.90;;
15102;SDS011;7652;53.584;9.998;2024-01-15T02:08:22;9.13;;;1.70;;
15102;SDS011;7652;53.584;9.998;2024-01-15T02:11:45;8.03;;;1.60;;
15102;SDS011;7652;53.584;9.998;2024-01-15T02:15:07;6.60;;;2.03;;
15102;SDS011;7652;53.584;9.998;2024-01-15T02:18:30;7.50;;;2.23;;
15102;SDS011;7652;53.584;9.998;2024-01-15T02:22:01;5.63;;;1.40;;
15102;SDS011;7652;53.584;9.998;2024-01-15T02:25:24;4.63;;;1.57;;
15102;SDS011;7652;53.584;9.998;2024-01-15T02:28:46;7.57;;;1.67;;
15102;SDS011;7652;53.584;9.998;2024-01-15T02:32:08;2.90;;;1.10;;
15102;SDS011;7652;53.584;9.998;2024-01-15T02:35:30;8.20;;;1.67;;
15102;SDS011;7652;53.584;9.998;2024-01-15T02:38:51;7.57;;;1.83;;
15102;SDS011;7652;53.584;9.998;2024-01-15T02:42:14;3.60;;;1.60;;
15102;SDS011;7652;53.584;9.998;2024-01-15T02:45:36;3.67;;;1.23;;
15102;SDS011;7652;53.584;9.998;2024-01-15T02:48:58;7.60;;;1.63;;
15102;SDS011;7652;53.584;9.998;2024-01-15T02:52:20;6.17;;;1.67;;
15102;SDS011;7652;53.584;9.998;2024-01-15T02:55:41;7.47;;;1.60;;
15102;SDS011;7652;53.584;9.998;2024-01-15T02:59:04;10.87;;;1.50;;
15102;SDS011;7652;53.584;9.998;2024-01-15T03:02:26;6.87;;;1.60;;
15102;SDS011;7652;53.584;9.998;2024-01-15T03:05:47;7.13;;;1.83;;
15102;SDS011;7652;53.584;9.998;2024-01-15T03:09:08;6.53;;;1.70;;
15102;SDS011;7652;53.584;9.998;2024-01-15T03:12:30;12.87;;;1.90;;
15102;SDS011;7652;53.584;9.998;2024-01-15T03:15:53;8.17;;;2.53;;
15102;SDS011;7652;53.584;9.998;2024-01-15T03:19:14;10.87;;;1.80;;
15102;SDS011;7652;53.584;9.998;2024-01-15T03:22:36;10.10;;;1.90;;
15102;SDS011;7652;53.584;9.998;2024-01-15T03:25:57;5.93;;;1.57;;
15102;SDS011;7652;53.584;9.998;2024-01-15T03:29:19;11.03;;;2.00;;
15102;SDS011;7652;53.584;9.998;2024-01-15T03:32:41;7.70;;;1.80;;
15102;SDS011;7652;53.584;9.998;2024-01-15T03:36:04;12.57;;;2.13;;
15102;SDS011;7652;53.584;9.998;2024-01-15T03:39:25;10.33;;;2.33;;
15102;SDS011;7652;53.584;9.998;2024-01-15T03:42:47;9.63;;;2.23;;
15102;SDS011;7652;53.584;9.998;2024-01-15T03:46:08;9.27;;;1.80;;
15102;SDS011;7652;53.584;9.998;2024-01-15T03:49:31;6.93;;;1.67;;
15102;SDS011;7652;53.584;9.998;2024-01-15T03:52:53;18.50;;;2.50;;
15102;SDS011;7652;53.584;9.998;2024-01-15T03:56:14;11.20;;;1.90;;
15102;SDS011;7652;53.584;9.998;2024-01-15T03:59:36;13.83;;;2.40;;
15102;SDS011;7652;53.584;9.998;2024-01-15T04:02:58;16.37;;;1.73;;
15102;SDS011;7652;53.584;9.998;2024-01-15T04:06:21;10.03;;;2.40;;
15102;SDS011;7652;53.584;9.998;2024-01-15T04:09:43;12.27;;;2.00;;
15102;SDS011;7652;53.584;9.998;2024-01-15T04:13:04;10.60;;;2.00;;
15102;SDS011;7652;53.584;9.998;2024-01-15T04:16:26;16.17;;;2.90;;
15102;SDS011;7652;53.584;9.998;2024-01-15T04:19:47;9.43;;;1.63;;
15102;SDS011;7652;53.584;9.998;2024-01-15T04:23:10;7.90;;;1.90;;
15102;SDS011;7652;53.584;9.998;2024-01-15T04:26:32;17.53;;;2.27;;
15102;SDS011;7652;53.584;9.998;2024-01-15T04:29:53;12.93;;;1.87;;
15102;SDS011;7652;53.584;9.998;2024-01-15T04:33:15;17.87;;;2.53;;
15102;SDS011;7652;53.584;9.998;2024-01-15T04:36:38;10.83;;;2.30;;
15102;SDS011;7652;53.584;9.998;2024-01-15T04:40:01;20.37;;;2.67;;
15102;SDS011;7652;53.584;9.998;2024-01-15T04:43:24;13.57;;;2.47;;
15102;SDS011;7652;53.584;9.998;2024-01-15T04:46:45;20.73;;;2.50;;
15102;SDS011;7652;53.584;9.998;2024-01-15T04:50:07;11.40;;;2.40;;
15102;SDS011;7652;53.584;9.998;2024-01-15T04:53:29;13.60;;;2.23;;
15102;SDS011;7652;53.584;9.998;2024-01-15T04:56:51;8.17;;;2.93;;
15102;SDS011;7652;53.584;9.998;2024-01-15T05:00:13;12.47;;;2.83;;
15102;SDS011;7652;53.584;9.998;2024-01-15T05:03:35;13.77;;;2.27;;
15102;SDS011;7652;53.584;9.998;2024-01-15T05:06:56;20.77;;;2.90;;
15102;SDS011;7652;53.584;9.998;2024-01-15T05:10:17;13.77;;;2.83;;
15102;SDS011;7652;53.584;9.998;2024-01-15T05:13:40;14.73;;;2.53;;
15102;SDS011;7652;53.584;9.998;2024-01-15T05:17:02;12.97;;;2.47;;
15102;SDS011;7652;53.584;9.998;2024-01-15T05:20:27;17.33;;;2.63;;
15102;SDS011;7652;53.584;9.998;2024-01-15T05:23:48;16.40;;;3.27;;
15102;SDS011;7652;53.584;9.998;2024-01-15T05:27:10;10.57;;;2.47;;
15102;SDS011;7652;53.584;9.998;2024-01-15T05:30:32;14.93;;;2.30;;
15102;SDS011;7652;53.584;9.998;2024-01-15T05:33:54;12.47;;;2.33;;
15102;SDS011;7652;53.584;9.998;2024-01-15T05:37:16;15.20;;;3.13;;
15102;SDS011;7652;53.584;9.998;2024-01-15T05:40:38;15.23;;;2.67;;
15102;SDS011;7652;53.584;9.998;2024-01-15T05:43:59;13.20;;;2.70;;
15102;SDS011;7652;53.584;9.998;2024-01-15T05:47:22;13.83;;;2.37;;
15102;SDS011;7652;53.584;9.998;2024-01-15T05:50:43;13.23;;;1.80;;
15102;SDS011;7652;53.584;9.998;2024-01-15T05:54:05;12.47;;;2.77;;
15102;SDS011;7652;53.584;9.998;2024-01-15T05:57:26;12.33;;;1.93;;
15102;SDS011;7652;53.584;9.998;2024-01-15T06:00:48;13.37;;;2.53;;
15102;SDS011;7652;53.584;9.998;2024-01-15T06:04:11;10.30;;;2.20;;
15102;SDS011;7652;53.584;9.998;2024-01-15T06:07:33;10.83;;;2.70;;
15102;SDS011;7652;53.584;9.998;2024-01-15T06:10:55;10.07;;;2.17;;
15102;SDS011;7652;53.584;9.998;2024-01-15T06:14:21;13.87;;;2.70;;
15102;SDS011;7652;53.584;9.998;2024-01-15T06:17:42;15.33;;;2.83;;
15102;SDS011;7652;53.584;9.998;2024-01-15T06:21:05;14.80;;;2.83;;
15102;SDS011;7652;53.584;9.998;2024-01-15T06:24:27;20.10;;;2.40;;
15102;SDS011;7652;53.584;9.998;2024-01-15T06:27:49;10.07;;;2.00;;
15102;SDS011;7652;53.584;9.998;2024-01-15T06:31:11;11.33;;;2.40;;
15102;SDS011;7652;53.584;9.998;2024-01-15T06:34:33;13.80;;;2.17;;
15102;SDS011;7652;53.584;9.998;2024-01-15T06:37:56;16.67;;;3.67;;
15102;SDS011;7652;53.584;9.998;2024-01-15T06:41:17;14.93;;;2.90;;
15102;SDS011;7652;53.584;9.998;2024-01-15T06:44:39;16.80;;;2.90;;
15102;SDS011;7652;53.584;9.998;2024-01-15T06:48:00;7.27;;;2.13;;
15102;SDS011;7652;53.584;9.998;2024-01-15T06:51:21;8.50;;;2.33;;
15102;SDS011;7652;53.584;9.998;2024-01-15T06:54:44;14.20;;;2.67;;
15102;SDS011;7652;53.584;9.998;2024-01-15T06:58:06;14.90;;;2.73;;
15102;SDS011;7652;53.584;9.998;2024-01-15T07:01:27;9.00;;;2.20;;
15102;SDS011;7652;53.584;9.998;2024-01-15T07:04:48;12.20;;;2.37;;
15102;SDS011;7652;53.584;9.998;2024-01-15T07:08:10;10.13;;;2.03;;
15102;SDS011;7652;53.584;9.998;2024-01-15T07:11:32;11.33;;;2.67;;
15102;SDS011;7652;53.584;9.998;2024-01-15T07:14:54;9.93;;;2.47;;
15102;SDS011;7652;53.584;9.998;2024-01-15T07:18:16;9.63;;;1.80;;
15102;SDS011;7652;53.584;9.998;2024-01-15T07:21:38;9.27;;;1.70;;
15102;SDS011;7652;53.584;9.998;2024-01-15T07:25:03;7.47;;;1.80;;
15102;SDS011;7652;53.584;9.998;2024-01-15T07:28:28;9.33;;;1.77;;
15102;SDS011;7652;53.584;9.998;2024-01-15T07:31:51;5.93;;;1.50;;
15102;SDS011;7652;53.584;9.998;2024-01-15T07:35:14;6.17;;;1.50;;
15102;SDS011;7652;53.584;9.998;2024-01-15T07:38:36;9.33;;;2.33;;
15102;SDS011;7652;53.584;9.998;2024-01-15T07:41:58;5.90;;;1.20;;
15102;SDS011;7652;53.584;9.998;2024-01-15T07:45:21;16.73;;;2.27;;
15102;SDS011;7652;53.584;9.998;2024-01-15T07:48:43;10.73;;;1.90;;
15102;SDS011;7652;53.584;9.998;2024-01-15T07:52:05;9.87;;;1.80;;
15102;SDS011;7652;53.584;9.998;2024-01-15T07:55:26;5.17;;;1.30;;
15102;SDS011;7652;53.584;9.998;2024-01-15T07:58:47;8.43;;;1.47;;
15102;SDS011;7652;53.584;9.998;2024-01-15T08:02:10;5.87;;;1.20;;
15102;SDS011;7652;53.584;9.998;2024-01-15T08:05:32;4.33;;;1.53;;
15102;SDS011;7652;53.584;9.998;2024-01-15T08:08:53;4.47;;;1.40;;
15102;SDS011;7652;53.584;9.998;2024-01-15T08:12:15;9.73;;;1.90;;
15102;SDS011;7652;53.584;9.998;2024-01-15T08:15:36;10.67;;;1.50;;
15102;SDS011;7652;53.584;9.998;2024-01-15T08:18:59;10.30;;;1.47;;
15102;SDS011;7652;53.584;9.998;2024-01-15T08:22:21;7.60;;;1.30;;
15102;SDS011;7652;53.584;9.998;2024-01-15T08:25:43;7.27;;;1.73;;
15102;SDS011;7652;53.584;9.998;2024-01-15T08:29:04;9.33;;;1.20;;
15102;SDS011;7652;53.584;9.998;2024-01-15T08:32:26;7.13;;;1.87;;
15102;SDS011;7652;53.584;9.998;2024-01-15T08:35:49;7.47;;;1.63;;
15102;SDS011;7652;53.584;9.998;2024-01-15T08:39:10;6.80;;;1.80;;
15102;SDS011;7652;53.584;9.998;2024-01-15T08:42:32;7.37;;;1.60;;
15102;SDS011;7652;53.584;9.998;2024-01-15T08:45:53;6.67;;;1.60;;
15102;SDS011;7652;53.584;9.998;2024-01-15T08:49:15;3.10;;;1.10;;
15102;SDS011;7652;53.584;9.998;2024-01-15T08:52:38;5.90;;;1.10;;
15102;SDS011;7652;53.584;9.998;2024-01-15T08:56:00;4.17;;;1.30;;
15102;SDS011;7652;53.584;9.998;2024-01-15T08:59:22;5.40;;;1.47;;
15102;SDS011;7652;53.584;9.998;2024-01-15T09:02:45;5.03;;;1.50;;
15102;SDS011;7652;53.584;9.998;2024-01-15T09:06:07;6.97;;;1.27;;
15102;SDS011;7652;53.584;9.998;2024-01-15T09:09:31;6.07;;;1.63;;
15102;SDS011;7652;53.584;9.998;2024-01-15T09:12:52;9.20;;;4.47;;
15102;SDS011;7652;53.584;9.998;2024-01-15T09:16:14;8.73;;;1.20;;
15102;SDS011;7652;53.584;9.998;2024-01-15T09:19:36;5.23;;;1.50;;
15102;SDS011;7652;53.584;9.998;2024-01-15T09:22:59;8.30;;;1.90;;
15102;SDS011;7652;53.584;9.998;2024-01-15T09:26:22;5.37;;;1.23;;
15102;SDS011;7652;53.584;9.998;2024-01-15T09:29:44;5.03;;;1.40;;
15102;SDS011;7652;53.584;9.998;2024-01-15T09:33:06;7.40;;;1.50;;
15102;SDS011;7652;53.584;9.998;2024-01-15T09:36:27;5.87;;;1.50;;
15102;SDS011;7652;53.584;9.998;2024-01-15T09:39:49;7.70;;;1.90;;
15102;SDS011;7652;53.584;9.998;2024-01-15T09:43:12;4.10;;;1.27;;
15102;SDS011;7652;53.584;9.998;2024-01-15T09:46:35;6.80;;;1.37;;
15102;SDS011;7652;53.584;9.998;2024-01-15T09:49:57;4.63;;;1.70;;
15102;SDS011;7652;53.584;9.998;2024-01-15T09:53:19;6.03;;;1.60;;
15102;SDS011;7652;53.584;9.998;2024-01-15T09:56:42;7.43;;;1.27;;
15102;SDS011;7652;53.584;9.998;2024-01-15T10:00:08;8.47;;;1.53;;
15102;SDS011;7652;53.584;9.998;2024-01-15T10:03:32;6.73;;;2.00;;
15102;SDS011;7652;53.584;9.998;2024-01-15T10:06:54;9.83;;;1.73;;
15102;SDS011;7652;53.584;9.998;2024-01-15T10:10:19;5.47;;;1.47;;
15102;SDS011;7652;53.584;9.998;2024-01-15T10:13:42;5.90;;;1.00;;
15102;SDS011;7652;53.584;9.998;2024-01-15T10:17:13;4.03;;;1.27;;
15102;SDS011;7652;53.584;9.998;2024-01-15T10:20:35;5.57;;;1.60;;
15102;SDS011;7652;53.584;9.998;2024-01-15T10:23:57;5.03;;;0.93;;
15102;SDS011;7652;53.584;9.998;2024-01-15T10:27:21;5.37;;;1.10;;
15102;SDS011;7652;53.584;9.998;2024-01-15T10:30:42;2.40;;;1.10;;
15102;SDS011;7652;53.584;9.998;2024-01-15T10:34:12;3.43;;;0.90;;
15102;SDS011;7652;53.584;9.998;2024-01-15T10:37:35;4.17;;;1.37;;
15102;SDS011;7652;53.584;9.998;2024-01-15T10:40:57;5.17;;;1.30;;
15102;SDS011;7652;53.584;9.998;2024-01-15T10:44:19;4.93;;;1.30;;
15102;SDS011;7652;53.584;9.998;2024-01-15T10:47:40;5.70;;;2.20;;
15102;SDS011;7652;53.584;9.998;2024-01-15T10:51:04;3.67;;;0.83;;
15102;SDS011;7652;53.584;9.998;2024-01-15T10:54:30;4.23;;;1.10;;
15102;SDS011;7652;53.584;9.998;2024-01-15T10:57:53;1.83;;;1.17;;
15102;SDS011;7652;53.584;9.998;2024-01-15T11:01:17;1.77;;;1.07;;
15102;SDS011;7652;53.584;9.998;2024-01-15T11:04:40;4.70;;;1.37;;
15102;SDS011;7652;53.584;9.998;2024-01-15T11:08:04;2.37;;;1.20;;
15102;SDS011;7652;53.584;9.998;2024-01-15T11:11:26;2.33;;;1.20;;
15102;SDS011;7652;53.584;9.998;2024-01-15T11:14:48;7.03;;;2.20;;
15102;SDS011;7652;53.584;9.998;2024-01-15T11:18:11;2.40;;;1.07;;
15102;SDS011;7652;53.584;9.998;2024-01-15T11:21:33;2.23;;;1.37;;
15102;SDS011;7652;53.584;9.998;2024-01-15T11:25:12;0.80;;;0.80;;
15102;SDS011;7652;53.584;9.998;2024-01-15T11:28:47;1.73;;;0.90;;
15102;SDS011;7652;53.584;9.998;2024-01-15T11:32:08;2.07;;;0.87;;
15102;SDS011;7652;53.584;9.998;2024-01-15T11:43:05;3.80;;;1.30;;
15102;SDS011;7652;53.584;9.998;2024-01-15T11:46:29;1.07;;;0.70;;
15102;SDS011;7652;53.584;9.998;2024-01-15T11:50:01;2.93;;;0.90;;
15102;SDS011;7652;53.584;9.998;2024-01-15T11:53:32;3.00;;;0.90;;
15102;SDS011;7652;53.584;9.998;2024-01-15T11:56:57;1.67;;;0.80;;
15102;SDS011;7652;53.584;9.998;2024-01-15T12:00:23;1.80;;;0.97;;
15102;SDS011;7652;53.584;9.998;2024-01-15T12:03:46;3.90;;;0.93;;
15102;SDS011;7652;53.584;9.998;2024-01-15T12:07:08;3.87;;;1.40;;
15102;SDS011;7652;53.584;9.998;2024-01-15T12:10:30;2.27;;;0.77;;
15102;SDS011;7652;53.584;9.998;2024-01-15T12:13:52;2.93;;;0.90;;
15102;SDS011;7652;53.584;9.998;2024-01-15T12:17:16;1.50;;;0.90;;
15102;SDS011;7652;53.584;9.998;2024-01-15T12:20:39;7.07;;;1.27;;
15102;SDS011;7652;53.584;9.998;2024-01-15T12:24:02;2.53;;;1.00;;
15102;SDS011;7652;53.584;9.998;2024-01-15T12:27:24;2.03;;;0.90;;
15102;SDS011;7652;53.584;9.998;2024-01-15T12:30:46;3.50;;;1.00;;
15102;SDS011;7652;53.584;9.998;2024-01-15T12:34:12;3.23;;;1.10;;
15102;SDS011;7652;53.584;9.998;2024-01-15T12:37:34;4.10;;;1.00;;
15102;SDS011;7652;53.584;9.998;2024-01-15T12:40:56;2.53;;;1.10;;
15102;SDS011;7652;53.584;9.998;2024-01-15T12:44:17;2.53;;;1.17;;
15102;SDS011;7652;53.584;9.998;2024-01-15T12:47:39;2.60;;;0.97;;
15102;SDS011;7652;53.584;9.998;2024-01-15T12:51:07;0.97;;;0.80;;
15102;SDS011;7652;53.584;9.998;2024-01-15T12:54:29;3.87;;;1.00;;
15102;SDS011;7652;53.584;9.998;2024-01-15T12:57:50;1.40;;;0.90;;
15102;SDS011;7652;53.584;9.998;2024-01-15T13:01:14;1.60;;;0.80;;
15102;SDS011;7652;53.584;9.998;2024-01-15T13:04:36;2.20;;;0.80;;
15102;SDS011;7652;53.584;9.998;2024-01-15T13:07:59;3.70;;;1.27;;
15102;SDS011;7652;53.584;9.998;2024-01-15T13:11:21;0.83;;;0.83;;
15102;SDS011;7652;53.584;9.998;2024-01-15T13:14:42;2.10;;;0.97;;
15102;SDS011;7652;53.584;9.998;2024-01-15T13:18:04;1.87;;;0.83;;
15102;SDS011;7652;53.584;9.998;2024-01-15T13:21:26;2.77;;;0.90;;
15102;SDS011;7652;53.584;9.998;2024-01-15T13:24:49;2.00;;;1.27;;
15102;SDS011;7652;53.584;9.998;2024-01-15T13:28:10;1.20;;;0.70;;
15102;SDS011;7652;53.584;9.998;2024-01-15T13:31:32;2.90;;;1.53;;
15102;SDS011;7652;53.584;9.998;2024-01-15T13:34:55;5.60;;;1.00;;
15102;SDS011;7652;53.584;9.998;2024-01-15T13:38:17;2.27;;;0.83;;
15102;SDS011;7652;53.584;9.998;2024-01-15T13:41:40;2.03;;;0.70;;
15102;SDS011;7652;53.584;9.998;2024-01-15T13:45:04;2.17;;;0.80;;
15102;SDS011;7652;53.584;9.998;2024-01-15T13:48:27;2.97;;;1.10;;
15102;SDS011;7652;53.584;9.998;2024-01-15T13:51:49;1.70;;;0.90;;
15102;SDS011;7652;53.584;9.998;2024-01-15T13:55:10;3.07;;;1.40;;
15102;SDS011;7652;53.584;9.998;2024-01-15T13:58:34;2.70;;;1.40;;
15102;SDS011;7652;53.584;9.998;2024-01-15T14:01:56;2.27;;;1.07;;
15102;SDS011;7652;53.584;9.998;2024-01-15T14:05:18;3.37;;;1.10;;
15102;SDS011;7652;53.584;9.998;2024-01-15T14:08:40;0.80;;;0.80;;
15102;SDS011;7652;53.584;9.998;2024-01-15T14:12:01;2.53;;;1.07;;
15102;SDS011;7652;53.584;9.998;2024-01-15T14:15:24;1.60;;;1.20;;
15102;SDS011;7652;53.584;9.998;2024-01-15T14:18:47;3.23;;;1.30;;
15102;SDS011;7652;53.584;9.998;2024-01-15T14:22:09;3.90;;;1.70;;
15102;SDS011;7652;53.584;9.998;2024-01-15T14:25:31;1.73;;;1.00;;
15102;SDS011;7652;53.584;9.998;2024-01-15T14:28:52;1.60;;;1.03;;
15102;SDS011;7652;53.584;9.998;2024-01-15T14:32:15;3.10;;;1.13;;
15102;SDS011;7652;53.584;9.998;2024-01-15T14:35:36;1.87;;;1.03;;
15102;SDS011;7652;53.584;9.998;2024-01-15T14:38:58;1.47;;;0.90;;
15102;SDS011;7652;53.584;9.998;2024-01-15T14:42:20;1.60;;;1.13;;
15102;SDS011;7652;53.584;9.998;2024-01-15T14:45:41;2.13;;;1.20;;
15102;SDS011;7652;53.584;9.998;2024-01-15T14:49:07;1.00;;;0.90;;
15102;SDS011;7652;53.584;9.998;2024-01-15T14:52:29;3.60;;;1.87;;
15102;SDS011;7652;53.584;9.998;2024-01-15T14:55:50;2.33;;;1.57;;
15102;SDS011;7652;53.584;9.998;2024-01-15T14:59:13;2.43;;;1.30;;
15102;SDS011;7652;53.584;9.998;2024-01-15T15:02:35;1.40;;;1.30;;
15102;SDS011;7652;53.584;9.998;2024-01-15T15:05:59;1.43;;;1.33;;
15102;SDS011;7652;53.584;9.998;2024-01-15T15:09:21;1.50;;;1.33;;
15102;SDS011;7652;53.584;9.998;2024-01-15T15:12:43;1.63;;;1.10;;
15102;SDS011;7652;53.584;9.998;2024-01-15T15:16:04;2.87;;;1.40;;
15102;SDS011;7652;53.584;9.998;2024-01-15T15:19:27;2.23;;;1.60;;
15102;SDS011;7652;53.584;9.998;2024-01-15T15:22:50;2.40;;;1.50;;
15102;SDS011;7652;53.584;9.998;2024-01-15T15:26:15;3.83;;;1.50;;
15102;SDS011;7652;53.584;9.998;2024-01-15T15:29:36;3.67;;;1.83;;
15102;SDS011;7652;53.584;9.998;2024-01-15T15:32:58;3.33;;;1.60;;
15102;SDS011;7652;53.584;9.998;2024-01-15T15:36:20;2.30;;;1.70;;
15102;SDS011;7652;53.584;9.998;2024-01-15T15:39:42;1.57;;;1.47;;
15102;SDS011;7652;53.584;9.998;2024-01-15T15:43:04;2.00;;;1.80;;
15102;SDS011;7652;53.584;9.998;2024-01-15T15:46:26;3.77;;;1.87;;
15102;SDS011;7652;53.584;9.998;2024-01-15T15:49:47;4.27;;;2.10;;
15102;SDS011;7652;53.584;9.998;2024-01-15T15:53:09;3.63;;;2.33;;
15102;SDS011;7652;53.584;9.998;2024-01-15T15:56:32;4.17;;;2.60;;
15102;SDS011;7652;53.584;9.998;2024-01-15T15:59:57;4.13;;;2.50;;
15102;SDS011;7652;53.584;9.998;2024-01-15T16:03:19;2.47;;;2.27;;
15102;SDS011;7652;53.584;9.998;2024-01-15T16:06:40;4.00;;;2.60;;
15102;SDS011;7652;53.584;9.998;2024-01-15T16:10:03;2.73;;;2.47;;
15102;SDS011;7652;53.584;9.998;2024-01-15T16:13:26;3.20;;;2.90;;
15102;SDS011;7652;53.584;9.998;2024-01-15T16:16:48;4.13;;;3.37;;
15102;SDS011;7652;53.584;9.998;2024-01-15T16:20:30;5.80;;;3.53;;
15102;SDS011;7652;53.584;9.998;2024-01-15T16:24:11;4.90;;;3.57;;
15102;SDS011;7652;53.584;9.998;2024-01-15T16:27:48;5.20;;;3.40;;
15102;SDS011;7652;53.584;9.998;2024-01-15T16:31:11;3.60;;;3.20;;
15102;SDS011;7652;53.584;9.998;2024-01-15T16:34:32;4.00;;;3.50;;
15102;SDS011;7652;53.584;9.998;2024-01-15T16:37:54;4.27;;;3.43;;
15102;SDS011;7652;53.584;9.998;2024-01-15T16:41:15;4.23;;;3.57;;
15102;SDS011;7652;53.584;9.998;2024-01-15T16:44:37;3.97;;;3.27;;
15102;SDS011;7652;53.584;9.998;2024-01-15T16:48:00;4.10;;;3.47;;
15102;SDS011;7652;53.584;9.998;2024-01-15T16:51:22;4.87;;;3.50;;
15102;SDS011;7652;53.584;9.998;2024-01-15T16:54:44;3.60;;;3.30;;
15102;SDS011;7652;53.584;9.998;2024-01-15T16:58:05;4.63;;;3.23;;
15102;SDS011;7652;53.584;9.998;2024-01-15T17:01:26;3.40;;;3.07;;
15102;SDS011;7652;53.584;9.998;2024-01-15T17:04:49;4.03;;;3.53;;
15102;SDS011;7652;53.584;9.998;2024-01-15T17:08:11;4.77;;;3.27;;
15102;SDS011;7652;53.584;9.998;2024-01-15T17:11:32;4.73;;;3.60;;
15102;SDS011;7652;53.584;9.998;2024-01-15T17:14:53;6.13;;;3.90;;
15102;SDS011;7652;53.584;9.998;2024-01-15T17:18:15;4.20;;;3.80;;
15102;SDS011;7652;53.584;9.998;2024-01-15T17:21:38;6.33;;;3.93;;
15102;SDS011;7652;53.584;9.998;2024-01-15T17:25:01;6.47;;;4.20;;
15102;SDS011;7652;53.584;9.998;2024-01-15T17:28:22;7.37;;;4.63;;
15102;SDS011;7652;53.584;9.998;2024-01-15T17:31:45;7.83;;;4.73;;
15102;SDS011;7652;53.584;9.998;2024-01-15T17:35:07;5.43;;;4.70;;
15102;SDS011;7652;53.584;9.998;2024-01-15T17:38:30;6.50;;;5.43;;
15102;SDS011;7652;53.584;9.998;2024-01-15T17:41:53;6.97;;;4.63;;
15102;SDS011;7652;53.584;9.998;2024-01-15T17:45:14;7.23;;;5.07;;
15102;SDS011;7652;53.584;9.998;2024-01-15T17:48:36;9.63;;;4.70;;
15102;SDS011;7652;53.584;9.998;2024-01-15T17:51:58;8.60;;;5.20;;
15102;SDS011;7652;53.584;9.998;2024-01-15T17:55:21;8.70;;;6.07;;
15102;SDS011;7652;53.584;9.998;2024-01-15T17:58:43;8.33;;;5.33;;
15102;SDS011;7652;53.584;9.998;2024-01-15T18:02:04;7.37;;;5.70;;
15102;SDS011;7652;53.584;9.998;2024-01-15T18:05:26;10.50;;;5.50;;
15102;SDS011;7652;53.584;9.998;2024-01-15T18:08:47;7.47;;;4.50;;
15102;SDS011;7652;53.584;9.998;2024-01-15T18:12:10;5.97;;;3.53;;
15102;SDS011;7652;53.584;9.998;2024-01-15T18:15:32;8.60;;;3.73;;
15102;SDS011;7652;53.584;9.998;2024-01-15T18:18:53;4.53;;;3.27;;
15102;SDS011;7652;53.584;9.998;2024-01-15T18:22:15;3.67;;;3.10;;
15102;SDS011;7652;53.584;9.998;2024-01-15T18:25:36;8.43;;;3.50;;
15102;SDS011;7652;53.584;9.998;2024-01-15T18:29:00;2.97;;;2.27;;
15102;SDS011;7652;53.584;9.998;2024-01-15T18:32:21;4.30;;;2.73;;
15102;SDS011;7652;53.584;9.998;2024-01-15T18:35:43;4.10;;;1.93;;
15102;SDS011;7652;53.584;9.998;2024-01-15T18:39:05;4.47;;;2.10;;
15102;SDS011;7652;53.584;9.998;2024-01-15T18:42:26;6.83;;;1.77;;
15102;SDS011;7652;53.584;9.998;2024-01-15T18:45:50;4.50;;;1.93;;
15102;SDS011;7652;53.584;9.998;2024-01-15T18:49:12;2.73;;;1.63;;
15102;SDS011;7652;53.584;9.998;2024-01-15T18:52:34;3.03;;;1.67;;
15102;SDS011;7652;53.584;9.998;2024-01-15T18:55:56;3.87;;;1.40;;
15102;SDS011;7652;53.584;9.998;2024-01-15T18:59:18;3.20;;;1.43;;
15102;SDS011;7652;53.584;9.998;2024-01-15T19:02:41;2.97;;;0.93;;
15102;SDS011;7652;53.584;9.998;2024-01-15T19:06:03;1.80;;;1.00;;
15102;SDS011;7652;53.584;9.998;2024-01-15T19:09:25;2.10;;;1.40;;
15102;SDS011;7652;53.584;9.998;2024-01-15T19:12:47;3.57;;;1.50;;
15102;SDS011;7652;53.584;9.998;2024-01-15T19:16:10;3.07;;;1.60;;
15102;SDS011;7652;53.584;9.998;2024-01-15T19:19:34;2.67;;;1.60;;
15102;SDS011;7652;53.584;9.998;2024-01-15T19:22:57;3.43;;;1.70;;
15102;SDS011;7652;53.584;9.998;2024-01-15T19:26:21;3.67;;;1.73;;
15102;SDS011;7652;53.584;9.998;2024-01-15T19:29:43;3.70;;;1.90;;
15102;SDS011;7652;53.584;9.998;2024-01-15T19:33:04;2.83;;;2.07;;
15102;SDS011;7652;53.584;9.998;2024-01-15T19:36:28;3.40;;;2.23;;
15102;SDS011;7652;53.584;9.998;2024-01-15T19:39:49;1.67;;;1.57;;
15102;SDS011;7652;53.584;9.998;2024-01-15T19:43:11;1.80;;;1.70;;
15102;SDS011;7652;53.584;9.998;2024-01-15T19:46:32;3.93;;;2.23;;
15102;SDS011;7652;53.584;9.998;2024-01-15T19:49:54;2.07;;;1.80;;
15102;SDS011;7652;53.584;9.998;2024-01-15T19:53:17;2.77;;;2.00;;
15102;SDS011;7652;53.584;9.998;2024-01-15T19:56:38;1.97;;;1.80;;
15102;SDS011;7652;53.584;9.998;2024-01-15T20:00:00;2.67;;;2.10;;
15102;SDS011;7652;53.584;9.998;2024-01-15T20:03:21;1.73;;;1.53;;
15102;SDS011;7652;53.584;9.998;2024-01-15T20:06:43;2.13;;;1.73;;
15102;SDS011;7652;53.584;9.998;2024-01-15T20:10:06;1.87;;;1.73;;
15102;SDS011;7652;53.584;9.998;2024-01-15T20:13:29;2.20;;;1.40;;
15102;SDS011;7652;53.584;9.998;2024-01-15T20:16:51;2.20;;;1.77;;
15102;SDS011;7652;53.584;9.998;2024-01-15T20:20:13;2.83;;;1.53;;
15102;SDS011;7652;53.584;9.998;2024-01-15T20:23:36;4.97;;;1.90;;
15102;SDS011;7652;53.584;9.998;2024-01-15T20:27:10;5.60;;;1.90;;
15102;SDS011;7652;53.584;9.998;2024-01-15T20:30:32;2.17;;;1.90;;
15102;SDS011;7652;53.584;9.998;2024-01-15T20:33:53;2.43;;;1.90;;
15102;SDS011;7652;53.584;9.998;2024-01-15T20:37:15;2.27;;;2.07;;
15102;SDS011;7652;53.584;9.998;2024-01-15T20:40:37;3.10;;;2.73;;